Time;durP1;ratioP1;P1;durP2;ratioP2;P2;SDS_P1;SDS_P2;PMS_P1;PMS_P2;Temp;Humidity;BMP_temperature;BMP_pressure;BME280_temperature;BME280_humidity;BME280_pressure;Samples;Min_cycle;Max_cycle;Signal;HPM_P1;HPM_P2
2021/12/11 00:02:10;;;;;;;3.67;0.80;;;20.60;72.60;;;;;;5133570;27;20423;-87
2021/12/11 00:04:41;;;;;;;4.38;0.95;;;20.70;72.30;;;;;;5134675;27;20973;-89
2021/12/11 00:07:16;;;;;;;6.15;0.80;;;21.00;72.60;;;;;;5132908;27;20381;-88
2021/12/11 00:09:48;;;;;;;4.67;0.73;;;21.40;71.30;;;;;;5127253;27;20380;-88
2021/12/11 00:12:26;;;;;;;2.33;0.80;;;21.60;69.00;;;;;;5132576;27;20373;-90
2021/12/11 00:15:16;;;;;;;5.90;0.73;;;21.50;67.30;;;;;;5132253;27;20455;-84
2021/12/11 00:17:43;;;;;;;3.60;0.70;;;21.50;70.10;;;;;;5132214;27;20377;-84
2021/12/11 00:20:21;;;;;;;7.45;0.82;;;21.60;65.70;;;;;;5132538;27;20369;-85
2021/12/11 00:22:49;;;;;;;5.32;0.70;;;21.50;67.60;;;;;;5132696;27;20752;-85
2021/12/11 00:25:19;;;;;;;2.03;0.80;;;21.80;65.60;;;;;;5132381;27;20852;-84
2021/12/11 00:27:50;;;;;;;3.60;0.80;;;22.00;65.60;;;;;;5132380;27;20365;-85
2021/12/11 00:30:30;;;;;;;3.25;0.80;;;22.00;64.90;;;;;;5132198;27;20369;-85
2021/12/11 00:33:12;;;;;;;0.90;0.40;;;22.10;66.60;;;;;;5132345;27;20400;-86
2021/12/11 00:35:39;;;;;;;2.60;0.80;;;21.90;66.20;;;;;;5132189;27;20408;-85
2021/12/11 00:38:10;;;;;;;2.08;0.55;;;21.60;66.40;;;;;;5132212;27;20405;-85
2021/12/11 00:40:39;;;;;;;5.97;1.30;;;21.70;66.70;;;;;;5132484;27;20365;-84
2021/12/11 00:43:12;;;;;;;3.53;0.90;;;22.10;66.40;;;;;;5131891;27;20365;-85
2021/12/11 00:45:40;;;;;;;4.57;1.00;;;22.40;65.60;;;;;;5131923;27;20907;-84
2021/12/11 00:48:11;;;;;;;4.38;0.98;;;22.70;64.30;;;;;;5131879;27;20372;-86
2021/12/11 00:50:43;;;;;;;2.35;0.77;;;22.90;62.90;;;;;;5131845;27;20380;-85
2021/12/11 00:53:15;;;;;;;3.30;0.82;;;22.80;62.30;;;;;;5131896;27;20388;-84
2021/12/11 00:55:50;;;;;;;2.33;0.85;;;22.80;63.00;;;;;;5131925;27;20435;-84
2021/12/11 00:58:28;;;;;;;2.85;0.75;;;22.90;62.30;;;;;;5131791;27;20920;-85
2021/12/11 01:00:57;;;;;;;2.63;0.95;;;23.00;62.80;;;;;;5131722;27;20430;-84
2021/12/11 01:03:35;;;;;;;2.70;0.70;;;23.20;60.90;;;;;;5113049;27;20384;-85
2021/12/11 01:06:10;;;;;;;9.33;1.30;;;22.90;62.40;;;;;;5131770;27;20365;-84
2021/12/11 01:08:40;;;;;;;4.57;0.88;;;22.50;62.60;;;;;;5131503;27;20364;-85
2021/12/11 01:11:21;;;;;;;14.80;1.70;;;22.40;62.50;;;;;;5131409;27;20388;-85
2021/12/11 01:14:04;;;;;;;11.20;1.50;;;22.00;64.50;;;;;;5131473;27;20368;-85
2021/12/11 01:16:31;;;;;;;9.63;1.40;;;21.80;65.70;;;;;;5131738;27;20455;-85
2021/12/11 01:19:02;;;;;;;4.70;0.98;;;21.90;65.60;;;;;;5131982;27;20370;-85
2021/12/11 01:21:44;;;;;;;5.65;0.80;;;21.70;67.70;;;;;;5136456;27;20373;-86
2021/12/11 01:24:29;;;;;;;6.68;0.90;;;22.00;65.60;;;;;;5132384;27;20384;-85
2021/12/11 01:27:00;;;;;;;2.85;0.70;;;22.00;64.50;;;;;;5131395;27;20706;-85
2021/12/11 01:29:29;;;;;;;2.47;0.73;;;22.10;67.10;;;;;;5112965;28;20472;-85
2021/12/11 01:31:57;;;;;;;2.00;0.70;;;22.40;63.40;;;;;;5132243;27;20443;-86
2021/12/11 01:34:26;;;;;;;8.25;1.00;;;22.60;63.40;;;;;;5130973;27;20439;-85
2021/12/11 01:36:54;;;;;;;1.98;0.60;;;22.70;62.80;;;;;;5131260;27;20429;-85
2021/12/11 01:39:25;;;;;;;7.93;1.05;;;22.80;61.70;;;;;;5131380;27;20859;-85
2021/12/11 01:41:54;;;;;;;4.10;0.90;;;22.50;62.80;;;;;;5131092;27;20384;-85
2021/12/11 01:44:29;;;;;;;3.73;0.80;;;22.20;63.70;;;;;;5131196;27;20381;-86
2021/12/11 01:47:02;;;;;;;7.25;1.02;;;21.90;65.10;;;;;;5131151;28;20460;-85
2021/12/11 01:49:31;;;;;;;4.15;0.63;;;21.70;67.20;;;;;;5131004;27;20729;-87
2021/12/11 01:52:11;;;;;;;5.95;0.80;;;21.40;68.90;;;;;;5131157;27;20365;-85
2021/12/11 01:54:44;;;;;;;3.97;0.75;;;21.30;68.90;;;;;;5130956;27;20514;-85
2021/12/11 01:57:23;;;;;;;6.57;0.90;;;21.40;69.30;;;;;;5131264;27;20363;-85
2021/12/11 01:59:55;;;;;;;6.10;0.93;;;21.50;70.50;;;;;;5130994;28;20712;-86
2021/12/11 02:02:37;;;;;;;5.47;1.08;;;21.70;70.40;;;;;;5130862;27;20365;-85
2021/12/11 02:05:06;;;;;;;2.53;0.68;;;22.10;67.50;;;;;;5131344;27;20448;-85
2021/12/11 02:07:43;;;;;;;2.93;0.60;;;22.40;66.50;;;;;;5131097;27;20702;-86
2021/12/11 02:10:25;;;;;;;2.97;1.00;;;22.60;66.10;;;;;;5130817;27;20701;-86
2021/12/11 02:12:53;;;;;;;2.83;1.50;;;22.70;65.20;;;;;;5131004;28;20361;-86
2021/12/11 02:15:32;;;;;;;3.58;0.70;;;22.90;64.30;;;;;;5130827;27;20392;-86
2021/12/11 02:18:12;;;;;;;5.40;1.80;;;23.10;64.30;;;;;;5130922;27;20829;-86
2021/12/11 02:21:02;;;;;;;3.22;1.00;;;23.10;64.60;;;;;;5131248;27;20373;-86
2021/12/11 02:23:29;;;;;;;2.55;0.60;;;23.20;63.10;;;;;;5134802;27;20429;-86
2021/12/11 02:26:02;;;;;;;2.17;0.60;;;23.20;61.70;;;;;;5134825;27;20369;-86
2021/12/11 02:29:06;;;;;;;1.25;0.63;;;23.00;62.30;;;;;;5134932;27;20463;-87
2021/12/11 02:31:47;;;;;;;1.80;0.90;;;23.00;62.00;;;;;;5121761;27;20373;-85
2021/12/11 02:34:23;;;;;;;5.38;0.90;;;23.00;63.00;;;;;;5134318;27;20407;-85
2021/12/11 02:37:04;;;;;;;3.70;1.10;;;22.90;64.20;;;;;;5134409;27;20377;-86
2021/12/11 02:39:46;;;;;;;2.65;0.90;;;23.00;64.70;;;;;;5134681;27;20410;-85
2021/12/11 02:42:38;;;;;;;2.87;0.70;;;23.10;64.70;;;;;;5134409;27;20357;-85
2021/12/11 02:45:32;;;;;;;5.18;0.98;;;23.20;64.10;;;;;;5134380;27;20368;-86
2021/12/11 02:48:19;;;;;;;6.05;1.00;;;23.30;61.70;;;;;;5115880;27;20883;-86
2021/12/11 02:51:11;;;;;;;4.85;1.60;;;23.30;60.30;;;;;;5115583;27;20381;-85
2021/12/11 02:53:56;;;;;;;8.80;1.20;;;23.40;60.80;;;;;;5134219;27;20414;-85
2021/12/11 02:56:34;;;;;;;12.52;1.40;;;23.30;61.00;;;;;;5134072;27;20396;-86
2021/12/11 02:59:06;;;;;;;7.97;1.33;;;23.10;60.80;;;;;;5134134;27;20464;-85
2021/12/11 03:01:41;;;;;;;3.40;1.13;;;23.00;61.30;;;;;;5133871;27;20373;-86
2021/12/11 03:04:23;;;;;;;7.78;1.17;;;23.10;62.30;;;;;;5134405;27;20365;-85
2021/12/11 03:06:53;;;;;;;6.27;0.90;;;23.00;61.60;;;;;;5133858;27;20902;-86
2021/12/11 03:09:24;;;;;;;1.77;0.60;;;23.00;62.30;;;;;;5115360;27;20872;-85
2021/12/11 03:11:53;;;;;;;3.75;0.80;;;22.40;61.60;;;;;;5133878;27;20380;-85
2021/12/11 03:14:22;;;;;;;2.50;0.70;;;22.10;64.70;;;;;;5133683;27;20389;-85
2021/12/11 03:16:50;;;;;;;1.58;0.60;;;22.10;63.70;;;;;;5133675;27;20464;-84
2021/12/11 03:19:20;;;;;;;1.10;0.57;;;21.90;65.60;;;;;;5133764;27;20369;-85
2021/12/11 03:21:48;;;;;;;2.80;1.20;;;21.80;66.40;;;;;;5133626;27;20369;-85
2021/12/11 03:24:16;;;;;;;2.70;1.00;;;21.80;67.80;;;;;;5133696;27;20361;-85
2021/12/11 03:26:47;;;;;;;3.40;0.95;;;21.90;67.20;;;;;;5133536;27;20373;-86
2021/12/11 03:29:15;;;;;;;4.25;0.90;;;21.90;67.60;;;;;;5133483;27;20379;-86
2021/12/11 03:31:42;;;;;;;7.88;1.52;;;22.40;65.40;;;;;;5133097;27;20377;-87
2021/12/11 03:34:14;;;;;;;2.60;1.30;;;22.90;61.50;;;;;;5132964;27;20449;-87
2021/12/11 03:36:42;;;;;;;3.78;2.38;;;23.40;61.10;;;;;;5133230;27;20468;-87
2021/12/11 03:39:30;;;;;;;4.20;3.58;;;24.20;59.80;;;;;;5134156;27;20376;-86
2021/12/11 03:42:00;;;;;;;4.30;2.38;;;25.40;55.90;;;;;;5133175;27;20381;-85
2021/12/11 03:44:32;;;;;;;3.30;1.13;;;25.40;54.20;;;;;;5133537;27;20365;-87
2021/12/11 03:47:06;;;;;;;2.45;0.98;;;24.60;55.80;;;;;;5133479;27;20460;-86
2021/12/11 03:49:33;;;;;;;1.87;1.60;;;24.10;56.80;;;;;;5133859;27;20786;-87
2021/12/11 03:52:01;;;;;;;0.95;0.65;;;23.80;58.00;;;;;;5133042;27;20381;-85
2021/12/11 03:54:31;;;;;;;2.60;1.63;;;23.80;58.30;;;;;;5132985;27;20401;-86
2021/12/11 03:56:59;;;;;;;1.23;0.77;;;23.80;58.50;;;;;;5133278;27;20373;-86
2021/12/11 03:59:27;;;;;;;1.42;0.60;;;23.80;58.10;;;;;;5133114;27;21143;-86
2021/12/11 04:02:03;;;;;;;1.60;0.70;;;23.70;59.90;;;;;;5133045;27;20868;-86
2021/12/11 04:04:37;;;;;;;1.30;0.70;;;23.80;59.20;;;;;;5133032;27;20741;-86
2021/12/11 04:07:15;;;;;;;2.25;0.70;;;23.60;59.10;;;;;;5133016;27;20357;-86
2021/12/11 04:09:42;;;;;;;2.58;0.75;;;23.30;61.20;;;;;;5133099;27;20397;-86
2021/12/11 04:12:10;;;;;;;3.10;0.70;;;22.90;61.20;;;;;;5114443;27;20379;-87
2021/12/11 04:14:41;;;;;;;2.07;0.73;;;22.40;62.90;;;;;;5114403;27;20793;-86
2021/12/11 04:17:11;;;;;;;1.25;0.60;;;22.10;64.10;;;;;;5133234;27;20372;-85
2021/12/11 04:19:39;;;;;;;1.95;0.68;;;22.10;64.60;;;;;;5132846;27;20798;-87
2021/12/11 04:22:07;;;;;;;2.78;0.80;;;22.00;64.40;;;;;;5132683;27;20873;-86
2021/12/11 04:24:37;;;;;;;3.13;0.65;;;21.80;64.90;;;;;;5132548;27;20717;-86
2021/12/11 04:27:08;;;;;;;2.92;0.70;;;21.70;65.10;;;;;;5132626;27;20401;-87
2021/12/11 04:29:36;;;;;;;1.83;0.70;;;21.80;65.60;;;;;;5132678;27;20395;-87
2021/12/11 04:32:04;;;;;;;2.80;0.70;;;21.90;65.60;;;;;;5132679;27;20461;-87
2021/12/11 04:34:32;;;;;;;4.38;0.70;;;22.00;65.70;;;;;;5113498;27;20408;-87
2021/12/11 04:37:10;;;;;;;3.45;0.70;;;22.10;65.60;;;;;;5113758;27;20376;-86
2021/12/11 04:39:40;;;;;;;2.13;0.60;;;22.20;66.50;;;;;;5132267;27;20379;-87
2021/12/11 04:42:28;;;;;;;0.90;0.45;;;22.20;66.20;;;;;;5132151;27;20728;-87
2021/12/11 04:44:55;;;;;;;1.65;0.50;;;22.30;63.70;;;;;;5131699;27;20774;-87
2021/12/11 04:47:42;;;;;;;0.90;0.50;;;22.30;64.10;;;;;;5133414;27;20369;-87
2021/12/11 04:50:22;;;;;;;0.80;0.40;;;22.30;64.30;;;;;;5133087;27;20376;-87
2021/12/11 04:52:55;;;;;;;0.80;0.50;;;22.20;64.90;;;;;;5132331;27;20380;-87
2021/12/11 05:14:39;;;;;;;1.85;0.50;;;22.50;67.40;;;;;;5126383;27;20389;-86
2021/12/11 05:17:07;;;;;;;0.77;0.40;;;22.70;64.80;;;;;;5131605;27;20422;-86
2021/12/11 05:19:35;;;;;;;0.85;0.40;;;23.00;65.50;;;;;;5131923;27;20489;-86
2021/12/11 05:22:05;;;;;;;1.15;0.50;;;23.00;64.50;;;;;;5132105;27;20373;-86
2021/12/11 05:24:33;;;;;;;2.75;0.70;;;22.70;65.80;;;;;;5132016;27;20365;-86
2021/12/11 05:27:01;;;;;;;1.92;0.80;;;22.30;66.70;;;;;;5132860;27;20369;-86
2021/12/11 05:29:29;;;;;;;1.83;0.60;;;21.90;70.30;;;;;;5132075;27;20728;-88
2021/12/11 05:31:56;;;;;;;3.30;0.93;;;21.80;70.80;;;;;;5132666;27;20397;-86
2021/12/11 05:34:23;;;;;;;2.10;0.70;;;21.60;70.80;;;;;;5132039;28;20420;-86
2021/12/11 05:36:50;;;;;;;1.98;0.80;;;21.60;71.20;;;;;;5132423;28;20373;-86
2021/12/11 05:39:21;;;;;;;2.08;0.80;;;21.60;70.40;;;;;;5131995;27;21263;-84
2021/12/11 05:41:49;;;;;;;6.18;0.70;;;21.50;69.40;;;;;;5131560;27;20377;-86
2021/12/11 05:44:19;;;;;;;10.70;1.00;;;21.40;69.30;;;;;;5131566;27;20400;-86
2021/12/11 05:46:46;;;;;;;5.13;0.80;;;21.30;70.60;;;;;;5132027;28;20420;-85
2021/12/11 05:49:14;;;;;;;4.55;0.80;;;21.20;71.20;;;;;;5131667;27;20377;-85
2021/12/11 05:51:44;;;;;;;2.60;0.80;;;21.20;71.00;;;;;;5131172;27;20912;-86
2021/12/11 05:54:16;;;;;;;3.50;0.90;;;21.20;71.90;;;;;;5131733;27;20373;-85
2021/12/11 05:56:44;;;;;;;3.70;1.00;;;21.20;71.90;;;;;;5134294;27;20379;-86
2021/12/11 05:59:14;;;;;;;3.38;0.77;;;21.10;73.00;;;;;;5135701;27;20411;-86
2021/12/11 06:01:45;;;;;;;3.60;0.90;;;21.00;73.00;;;;;;5117853;27;20808;-87
2021/12/11 06:04:21;;;;;;;2.70;0.70;;;21.10;72.00;;;;;;5136983;27;20389;-86
2021/12/11 06:06:49;;;;;;;1.73;0.80;;;21.10;72.50;;;;;;5136415;27;20911;-87
2021/12/11 06:09:19;;;;;;;3.58;0.80;;;21.10;72.90;;;;;;5136496;27;20456;-86
2021/12/11 06:11:48;;;;;;;2.95;0.90;;;21.00;74.50;;;;;;5136378;27;20430;-86
2021/12/11 06:14:17;;;;;;;2.28;0.60;;;21.10;73.00;;;;;;5136037;27;20388;-87
2021/12/11 06:16:50;;;;;;;1.73;0.70;;;21.00;73.30;;;;;;5117408;27;20388;-85
2021/12/11 06:19:21;;;;;;;4.10;0.80;;;21.00;73.70;;;;;;5135680;27;20368;-86
2021/12/11 06:21:50;;;;;;;4.83;0.70;;;21.10;74.60;;;;;;5135372;27;20377;-86
2021/12/11 06:24:18;;;;;;;3.35;0.73;;;21.00;74.00;;;;;;5135285;27;20365;-85
2021/12/11 06:26:45;;;;;;;2.00;0.70;;;21.00;75.50;;;;;;5135020;27;20774;-85
2021/12/11 06:29:12;;;;;;;2.13;0.60;;;21.00;74.90;;;;;;5134818;27;20360;-85
2021/12/11 06:31:42;;;;;;;1.17;0.68;;;21.00;74.50;;;;;;5134802;27;20378;-86
2021/12/11 06:34:11;;;;;;;2.10;0.70;;;21.10;74.90;;;;;;5134659;27;20392;-85
2021/12/11 06:36:39;;;;;;;2.28;0.80;;;21.10;75.30;;;;;;5134545;27;20403;-86
2021/12/11 06:39:11;;;;;;;3.58;0.88;;;21.10;76.00;;;;;;5133299;27;20388;-91
2021/12/11 06:41:42;;;;;;;2.53;1.00;;;21.30;76.60;;;;;;5115211;27;20389;-88
2021/12/11 06:44:10;;;;;;;4.90;1.30;;;21.40;77.70;;;;;;5134095;27;20380;-88
2021/12/11 06:46:39;;;;;;;5.43;1.58;;;21.50;78.60;;;;;;5115623;27;20395;-85
2021/12/11 06:49:06;;;;;;;6.15;1.60;;;21.30;79.30;;;;;;5134412;27;20514;-83
2021/12/11 06:51:34;;;;;;;5.72;1.60;;;21.30;80.10;;;;;;5134119;27;20438;-87
2021/12/11 06:54:05;;;;;;;6.00;1.60;;;21.30;81.40;;;;;;5134223;27;20455;-85
2021/12/11 06:56:33;;;;;;;4.63;1.65;;;21.30;82.60;;;;;;5134075;27;20377;-86
2021/12/11 06:59:00;;;;;;;4.13;1.40;;;21.40;82.80;;;;;;5134540;27;20481;-87
2021/12/11 07:01:28;;;;;;;3.70;1.30;;;21.50;82.80;;;;;;5133589;27;20379;-85
2021/12/11 07:03:58;;;;;;;6.38;1.55;;;21.50;81.90;;;;;;5135576;27;21293;-85
2021/12/11 07:06:26;;;;;;;4.95;1.50;;;21.50;82.00;;;;;;5134046;27;20458;-88
2021/12/11 07:08:53;;;;;;;5.38;1.40;;;21.50;82.60;;;;;;5133295;27;20401;-86
2021/12/11 07:11:22;;;;;;;15.57;7.90;;;21.60;82.10;;;;;;5132998;27;20377;-86
2021/12/11 07:13:49;;;;;;;11.90;7.43;;;21.70;81.80;;;;;;5132538;27;20408;-85
2021/12/11 07:16:16;;;;;;;7.47;4.50;;;21.80;80.90;;;;;;5133541;27;20421;-84
2021/12/11 07:18:47;;;;;;;12.18;6.72;;;21.90;80.80;;;;;;5133848;27;20377;-85
2021/12/11 07:21:14;;;;;;;7.82;2.83;;;21.70;78.70;;;;;;5134233;27;20454;-85
2021/12/11 07:23:47;;;;;;;3.55;1.40;;;21.60;80.30;;;;;;5115047;27;20413;-83
2021/12/11 07:26:22;;;;;;;5.35;1.20;;;21.60;80.70;;;;;;5126258;27;20383;-84
2021/12/11 07:28:53;;;;;;;3.83;1.20;;;21.60;79.30;;;;;;5120594;27;20943;-87
2021/12/11 07:31:24;;;;;;;3.65;1.20;;;21.60;78.80;;;;;;5134027;27;20393;-86
2021/12/11 07:33:52;;;;;;;6.23;1.50;;;21.50;80.30;;;;;;5136572;27;20373;-89
2021/12/11 07:36:21;;;;;;;4.88;1.60;;;21.40;79.80;;;;;;5133269;27;20401;-84
2021/12/11 07:38:48;;;;;;;5.90;1.45;;;21.30;81.00;;;;;;5135831;27;20388;-84
2021/12/11 07:41:17;;;;;;;5.10;1.50;;;21.10;83.00;;;;;;5133428;27;20948;-87
2021/12/11 07:43:46;;;;;;;6.53;1.60;;;20.90;83.80;;;;;;5133260;27;20372;-84
2021/12/11 07:46:16;;;;;;;7.80;1.50;;;20.70;86.20;;;;;;5130680;27;20419;-86
2021/12/11 07:48:45;;;;;;;4.68;1.30;;;20.70;85.90;;;;;;5132251;27;20421;-89
2021/12/11 07:51:13;;;;;;;5.80;1.40;;;20.60;86.50;;;;;;5117569;27;20375;-86
2021/12/11 07:53:40;;;;;;;4.55;1.55;;;20.50;87.00;;;;;;5154144;27;20457;-88
2021/12/11 07:56:08;;;;;;;4.43;1.50;;;20.50;87.60;;;;;;5133950;27;20411;-86
2021/12/11 07:58:35;;;;;;;3.63;1.40;;;20.60;87.50;;;;;;5132141;27;20373;-87
2021/12/11 08:01:06;;;;;;;7.43;1.83;;;20.60;88.90;;;;;;5132372;27;20445;-84
2021/12/11 08:03:33;;;;;;;4.65;1.70;;;20.80;89.00;;;;;;5132224;27;20433;-86
2021/12/11 08:06:01;;;;;;;7.60;1.95;;;20.80;89.20;;;;;;5131759;27;20413;-86
2021/12/11 08:08:28;;;;;;;7.32;1.70;;;20.60;89.60;;;;;;5132027;27;20486;-85
2021/12/11 08:10:58;;;;;;;7.68;1.88;;;20.30;90.20;;;;;;5131217;27;20377;-85
2021/12/11 08:13:26;;;;;;;7.85;2.10;;;20.10;91.10;;;;;;5132423;27;20445;-85
2021/12/11 08:15:55;;;;;;;7.00;1.70;;;19.80;92.00;;;;;;5131538;27;20887;-87
2021/12/11 08:18:26;;;;;;;5.68;1.88;;;19.50;93.30;;;;;;5131647;27;20465;-89
2021/12/11 08:20:54;;;;;;;8.73;2.08;;;19.30;94.40;;;;;;5131607;27;20389;-85
2021/12/11 08:23:22;;;;;;;8.43;1.80;;;19.10;95.40;;;;;;5132079;27;20385;-83
2021/12/11 08:25:52;;;;;;;7.00;1.90;;;18.90;96.20;;;;;;5130581;27;20388;-84
2021/12/11 08:28:26;;;;;;;8.02;2.17;;;18.80;97.30;;;;;;5129404;27;20522;-86
2021/12/11 08:30:54;;;;;;;7.20;2.20;;;18.80;97.90;;;;;;5131850;27;20424;-89
2021/12/11 08:33:23;;;;;;;6.30;1.92;;;18.80;98.10;;;;;;5126923;27;20378;-85
2021/12/11 08:35:52;;;;;;;6.55;1.85;;;18.80;98.30;;;;;;5137343;27;20404;-84
2021/12/11 08:38:19;;;;;;;6.25;1.50;;;18.80;98.00;;;;;;5127255;27;20408;-85
2021/12/11 08:40:54;;;;;;;6.32;1.85;;;18.70;97.90;;;;;;5146409;27;20385;-84
2021/12/11 08:43:21;;;;;;;5.45;1.75;;;18.60;97.80;;;;;;5130859;27;20369;-84
2021/12/11 08:46:01;;;;;;;5.85;1.67;;;18.50;97.90;;;;;;5131203;27;20419;-84
2021/12/11 08:48:28;;;;;;;5.53;1.50;;;18.40;98.50;;;;;;5131521;27;20417;-84
2021/12/11 08:51:01;;;;;;;4.45;1.40;;;18.30;98.00;;;;;;5130247;27;20401;-84
2021/12/11 08:53:30;;;;;;;5.65;1.20;;;18.20;97.70;;;;;;5130585;27;20376;-85
2021/12/11 08:55:59;;;;;;;3.85;1.10;;;18.10;97.80;;;;;;5115805;27;20397;-85
2021/12/11 08:58:29;;;;;;;3.57;1.00;;;18.00;97.50;;;;;;5130248;27;20974;-86
2021/12/11 09:01:08;;;;;;;2.60;1.10;;;17.90;97.80;;;;;;5130349;27;20365;-85
2021/12/11 09:03:35;;;;;;;2.67;0.90;;;17.90;97.80;;;;;;5130919;27;20373;-85
2021/12/11 09:06:13;;;;;;;5.63;1.10;;;17.80;97.90;;;;;;5130506;27;20369;-84
2021/12/11 09:08:57;;;;;;;3.03;0.90;;;17.70;98.00;;;;;;5139755;27;20464;-84
2021/12/11 09:11:33;;;;;;;5.35;1.20;;;17.60;98.10;;;;;;5130458;27;20384;-83
2021/12/11 09:14:12;;;;;;;5.35;1.02;;;17.50;98.40;;;;;;5130435;27;20365;-83
2021/12/11 09:16:47;;;;;;;5.23;1.20;;;17.50;98.80;;;;;;5130796;27;20389;-82
2021/12/11 09:19:14;;;;;;;2.30;0.80;;;17.40;98.90;;;;;;5130852;27;20393;-84
2021/12/11 09:21:52;;;;;;;2.03;1.00;;;17.30;98.90;;;;;;5139865;27;20371;-83
2021/12/11 09:24:40;;;;;;;3.80;1.17;;;17.30;99.00;;;;;;5117791;27;20368;-83
2021/12/11 09:27:22;;;;;;;3.60;1.17;;;17.20;99.50;;;;;;5130027;27;20376;-83
2021/12/11 09:29:54;;;;;;;3.50;1.10;;;17.20;99.90;;;;;;5129738;27;20373;-84
2021/12/11 09:32:39;;;;;;;3.33;1.40;;;17.10;99.90;;;;;;5130645;27;20365;-83
2021/12/11 09:35:09;;;;;;;5.05;1.67;;;17.10;99.90;;;;;;5129581;27;20416;-82
2021/12/11 09:37:37;;;;;;;5.18;1.60;;;17.00;99.90;;;;;;5130273;28;20392;-84
2021/12/11 09:40:15;;;;;;;4.00;1.40;;;16.90;99.90;;;;;;5129904;27;20778;-83
2021/12/11 09:42:41;;;;;;;5.43;1.40;;;16.80;99.90;;;;;;5123064;28;20384;-83
2021/12/11 09:45:19;;;;;;;4.90;1.30;;;16.80;99.90;;;;;;5126709;27;20383;-83
2021/12/11 09:47:51;;;;;;;4.20;1.40;;;16.70;99.90;;;;;;5151885;27;20406;-84
2021/12/11 09:50:25;;;;;;;2.80;1.40;;;16.70;99.90;;;;;;5132793;27;20783;-83
2021/12/11 09:52:54;;;;;;;6.30;1.23;;;16.60;99.90;;;;;;5131029;27;20399;-84
2021/12/11 09:55:27;;;;;;;4.05;1.10;;;16.70;99.90;;;;;;5130776;27;20419;-84
2021/12/11 09:58:00;;;;;;;3.25;1.15;;;16.60;99.90;;;;;;5130670;28;20408;-84
2021/12/11 10:00:43;;;;;;;5.60;1.35;;;16.60;99.90;;;;;;5129923;27;20385;-84
2021/12/11 10:03:13;;;;;;;4.50;1.17;;;16.60;99.90;;;;;;5130942;27;20406;-82
2021/12/11 10:06:12;;;;;;;5.70;1.30;;;16.50;99.90;;;;;;5152060;27;20393;-83
2021/12/11 10:08:44;;;;;;;4.17;1.23;;;16.50;99.90;;;;;;5110538;28;20362;-82
2021/12/11 10:11:13;;;;;;;4.13;1.38;;;16.50;99.90;;;;;;5122790;27;20930;-83
2021/12/11 10:13:46;;;;;;;4.68;1.35;;;16.50;99.90;;;;;;5112614;28;20377;-83
2021/12/11 10:16:15;;;;;;;6.40;1.50;;;16.50;99.90;;;;;;5131188;27;20395;-83
2021/12/11 10:18:42;;;;;;;6.82;1.73;;;16.50;99.90;;;;;;5130681;27;20372;-83
2021/12/11 10:21:24;;;;;;;5.15;1.30;;;16.60;99.90;;;;;;5130405;27;20388;-83
2021/12/11 10:23:56;;;;;;;4.63;1.30;;;16.60;99.90;;;;;;5130328;27;20763;-84
2021/12/11 10:26:25;;;;;;;4.63;1.30;;;16.70;99.90;;;;;;5130824;27;20464;-84
2021/12/11 10:28:58;;;;;;;4.17;1.20;;;16.60;99.90;;;;;;5131020;27;20490;-82
2021/12/11 10:31:38;;;;;;;5.20;1.02;;;16.60;99.90;;;;;;5130818;27;20373;-83
2021/12/11 10:34:11;;;;;;;3.03;1.00;;;16.70;99.90;;;;;;5113753;28;20740;-83
2021/12/11 10:36:45;;;;;;;5.45;1.05;;;16.70;99.90;;;;;;5130379;27;20380;-82
2021/12/11 10:39:15;;;;;;;3.55;1.10;;;16.80;99.90;;;;;;5130242;27;20416;-83
2021/12/11 10:41:44;;;;;;;3.17;1.10;;;16.80;99.90;;;;;;5130445;27;20392;-83
2021/12/11 10:44:18;;;;;;;4.68;1.10;;;16.80;99.90;;;;;;5134576;27;20762;-84
2021/12/11 10:46:57;;;;;;;5.40;1.20;;;16.80;99.90;;;;;;5134459;27;20392;-83
2021/12/11 10:49:25;;;;;;;5.88;1.15;;;16.80;99.90;;;;;;5134449;27;20433;-83
2021/12/11 10:52:07;;;;;;;3.90;1.02;;;16.80;99.90;;;;;;5115747;27;20419;-85
2021/12/11 10:54:34;;;;;;;3.40;0.98;;;16.80;99.90;;;;;;5133481;27;20496;-85
2021/12/11 10:57:01;;;;;;;4.17;1.07;;;16.70;99.90;;;;;;5134264;27;20416;-84
2021/12/11 10:59:34;;;;;;;4.50;1.10;;;16.60;99.90;;;;;;5133457;27;20377;-83
2021/12/11 11:02:20;;;;;;;6.40;1.10;;;16.50;99.90;;;;;;5133925;27;20362;-83
2021/12/11 11:04:55;;;;;;;4.78;1.10;;;16.50;99.90;;;;;;5132835;27;20433;-83
2021/12/11 11:07:25;;;;;;;5.05;1.17;;;16.50;99.90;;;;;;5151096;27;20443;-83
2021/12/11 11:09:54;;;;;;;4.00;0.93;;;16.50;99.90;;;;;;5151248;27;20897;-83
2021/12/11 11:12:24;;;;;;;5.80;1.42;;;16.50;99.90;;;;;;5154634;27;20399;-83
2021/12/11 11:14:53;;;;;;;6.60;1.30;;;16.50;99.90;;;;;;5144388;27;20405;-83
2021/12/11 11:17:33;;;;;;;3.90;1.40;;;16.50;99.90;;;;;;5133772;27;20365;-81
2021/12/11 11:20:05;;;;;;;6.53;1.65;;;16.50;99.90;;;;;;5133614;27;20369;-83
2021/12/11 11:22:37;;;;;;;4.80;1.27;;;16.60;99.90;;;;;;5132419;27;20391;-82
2021/12/11 11:25:26;;;;;;;8.23;1.40;;;16.50;99.90;;;;;;5132202;27;20505;-82
2021/12/11 11:28:01;;;;;;;7.05;1.27;;;16.50;99.90;;;;;;5132936;27;20457;-82
2021/12/11 11:30:39;;;;;;;6.37;1.40;;;16.40;99.90;;;;;;5132474;27;20373;-83
2021/12/11 11:33:09;;;;;;;6.75;1.40;;;16.40;99.90;;;;;;5114703;27;20456;-84
2021/12/11 11:35:42;;;;;;;6.50;1.43;;;16.40;99.90;;;;;;5110693;28;20807;-83
2021/12/11 11:38:14;;;;;;;6.72;1.52;;;16.30;99.90;;;;;;5112076;28;20385;-83
2021/12/11 11:40:44;;;;;;;7.03;1.63;;;16.20;99.90;;;;;;5112550;27;21190;-83
2021/12/11 11:43:12;;;;;;;9.15;1.50;;;16.20;99.90;;;;;;5112811;28;20355;-81
2021/12/11 11:45:40;;;;;;;9.13;1.70;;;16.20;99.90;;;;;;5112496;28;20945;-82
2021/12/11 11:48:09;;;;;;;8.00;1.50;;;16.10;99.90;;;;;;5112388;28;20377;-83
2021/12/11 11:50:45;;;;;;;8.82;1.45;;;16.10;99.90;;;;;;5111754;28;20808;-82
2021/12/11 11:53:14;;;;;;;15.50;1.70;;;16.00;99.90;;;;;;5111806;28;20892;-83
2021/12/11 11:55:48;;;;;;;8.05;1.65;;;15.90;99.90;;;;;;5112589;28;20459;-81
2021/12/11 11:58:17;;;;;;;7.57;1.70;;;15.90;99.90;;;;;;5099096;28;20385;-83
2021/12/11 12:00:52;;;;;;;4.27;1.50;;;15.80;99.90;;;;;;5111890;28;20426;-83
2021/12/11 12:03:25;;;;;;;3.77;1.33;;;15.80;99.90;;;;;;5112082;28;20375;-82
2021/12/11 12:05:55;;;;;;;4.72;1.40;;;15.70;99.90;;;;;;5111820;28;20386;-82
2021/12/11 12:08:23;;;;;;;4.13;1.20;;;15.60;99.90;;;;;;5112296;28;20401;-82
2021/12/11 12:10:51;;;;;;;3.55;1.20;;;15.60;99.90;;;;;;5111727;28;20374;-82
2021/12/11 12:13:24;;;;;;;4.88;1.50;;;15.50;99.90;;;;;;5111976;28;20447;-82
2021/12/11 12:15:55;;;;;;;4.30;1.27;;;15.40;99.90;;;;;;5111589;28;20963;-82
2021/12/11 12:18:25;;;;;;;3.83;1.58;;;15.30;99.90;;;;;;5112045;28;20383;-82
2021/12/11 12:20:52;;;;;;;4.45;1.50;;;15.30;99.90;;;;;;5111501;28;20466;-82
2021/12/11 12:23:20;;;;;;;5.97;1.42;;;15.20;99.90;;;;;;5110753;28;20378;-82
2021/12/11 12:25:50;;;;;;;7.20;1.30;;;15.20;99.90;;;;;;5108680;28;20436;-85
2021/12/11 12:28:18;;;;;;;4.53;1.60;;;15.20;99.90;;;;;;5111696;28;20367;-82
2021/12/11 12:30:54;;;;;;;5.93;1.60;;;15.20;99.90;;;;;;5111602;28;20386;-82
2021/12/11 12:33:21;;;;;;;6.60;1.40;;;15.10;99.90;;;;;;5111747;28;20407;-82
2021/12/11 12:35:49;;;;;;;5.60;1.42;;;15.10;99.90;;;;;;5128356;27;20412;-82
2021/12/11 12:38:19;;;;;;;6.90;1.60;;;15.10;99.90;;;;;;5131916;27;21251;-82
2021/12/11 12:41:12;;;;;;;3.95;1.38;;;15.00;99.90;;;;;;5131373;27;20658;-82
2021/12/11 12:46:34;;;;;;;7.93;2.50;;;14.90;99.90;;;;;;5131988;27;20460;-82
2021/12/11 12:49:02;;;;;;;11.17;7.57;;;14.90;99.90;;;;;;5130605;27;20419;-82
2021/12/11 12:51:31;;;;;;;18.07;13.13;;;14.80;99.90;;;;;;5131246;27;20466;-82
2021/12/11 12:53:59;;;;;;;5.85;2.40;;;14.80;99.90;;;;;;5131861;27;20765;-82
2021/12/11 12:56:54;;;;;;;7.50;2.90;;;14.70;99.90;;;;;;5130936;27;20979;-82
2021/12/11 12:59:29;;;;;;;12.73;7.45;;;14.50;99.90;;;;;;5131604;27;20377;-84
2021/12/11 13:02:00;;;;;;;10.43;4.57;;;14.50;99.90;;;;;;5131904;27;20414;-82
2021/12/11 13:04:32;;;;;;;9.45;4.03;;;14.50;99.90;;;;;;5130606;27;20736;-82
2021/12/11 13:07:03;;;;;;;10.35;4.47;;;14.50;99.90;;;;;;5131298;27;20381;-82
2021/12/11 13:09:49;;;;;;;8.68;3.53;;;14.50;99.90;;;;;;5131468;27;20376;-83
2021/12/11 13:12:22;;;;;;;5.35;2.20;;;14.40;99.90;;;;;;5130394;27;20373;-82
2021/12/11 13:14:52;;;;;;;6.22;2.33;;;14.30;99.90;;;;;;5131580;27;20389;-82
2021/12/11 13:17:24;;;;;;;4.35;1.70;;;14.30;99.90;;;;;;5131037;27;20381;-83
2021/12/11 13:19:56;;;;;;;6.03;2.40;;;14.30;99.90;;;;;;5113062;27;20729;-82
2021/12/11 13:22:27;;;;;;;5.68;2.22;;;14.30;99.90;;;;;;5131621;27;20556;-82
2021/12/11 13:25:00;;;;;;;5.32;1.60;;;14.20;99.90;;;;;;5131274;27;20409;-82
2021/12/11 13:27:29;;;;;;;5.90;1.70;;;14.20;99.90;;;;;;5131167;27;20474;-82
2021/12/11 13:30:03;;;;;;;7.15;2.05;;;14.20;99.90;;;;;;5131269;27;20373;-82
2021/12/11 13:32:32;;;;;;;5.88;2.00;;;14.10;99.90;;;;;;5130223;27;20369;-82
2021/12/11 13:35:05;;;;;;;5.07;1.90;;;14.10;99.90;;;;;;5130855;27;20400;-82